13  °C
Temperature
12  °C
  Dewpoint
   Humidity
Temp | Dewpoint | Humidity
8  km/h
Wind Speed
5  mph
Wind Speed
4  kts
Wind Speed
70°
East North
East

Wind Speed
Partly Cloudy
Conditions
Pressure 1013.92 (hPa) - 29.94 (in)
Visibility 6.2 (mi) - 10.0 (km)

Current Conditions
LGTS
Location 6km (3.2mi)
Metar :LGTS 142350Z 07004KT 9999 FEW030 13/12 Q1014 NOSIG
Fri 15th November 01:50 am

Airport
  Metar Aviation API Data Provided by https://www.checkwx.com/ CSS/SVG/PHP scripts by weather34.com © 2015-2019